createdAt,value
2017-06-02T00:00:35.732Z,11.70
2017-06-02T00:03:01.861Z,11.92
2017-06-02T00:05:28.387Z,11.86
2017-06-02T00:07:54.878Z,11.88
2017-06-02T00:10:20.987Z,12.30
2017-06-02T00:12:47.300Z,11.02
2017-06-02T00:15:13.744Z,13.44
2017-06-02T00:17:40.217Z,14.34
2017-06-02T00:20:06.283Z,11.02
2017-06-02T00:22:32.771Z,13.04
2017-06-02T00:24:58.899Z,11.74
2017-06-02T00:27:25.353Z,12.18
2017-06-02T00:29:51.457Z,12.68
2017-06-02T00:32:17.936Z,12.48
2017-06-02T00:34:44.033Z,12.34
2017-06-02T00:37:10.111Z,12.66
2017-06-02T00:39:36.192Z,13.50
2017-06-02T00:42:02.287Z,13.28
2017-06-02T00:44:28.349Z,12.16
2017-06-02T00:46:54.437Z,11.94
2017-06-02T00:49:20.576Z,11.18
2017-06-02T00:51:47.094Z,12.10
2017-06-02T00:54:13.554Z,11.04
2017-06-02T00:56:39.642Z,11.32
2017-06-02T00:59:06.119Z,13.76
2017-06-02T01:01:32.259Z,13.08
2017-06-02T01:03:58.719Z,12.58
2017-06-02T01:06:25.289Z,13.32
2017-06-02T01:08:51.492Z,12.82
2017-06-02T01:11:18.100Z,12.68
2017-06-02T01:13:44.630Z,17.52
2017-06-02T01:16:10.822Z,16.16
2017-06-02T01:18:37.378Z,14.24
2017-06-02T01:21:03.945Z,13.16
2017-06-02T01:23:30.550Z,13.86
2017-06-02T01:25:57.103Z,14.30
2017-06-02T01:28:23.555Z,12.16
2017-06-02T01:30:50.103Z,13.16
2017-06-02T01:33:16.705Z,13.38
2017-06-02T01:35:43.257Z,13.94
2017-06-02T01:38:12.816Z,14.78
2017-06-02T01:40:39.347Z,12.10
2017-06-02T01:43:05.897Z,13.42
2017-06-02T01:45:32.448Z,14.34
2017-06-02T01:47:59.068Z,12.98
2017-06-02T01:50:25.297Z,13.06
2017-06-02T01:52:51.818Z,12.32
2017-06-02T01:55:18.375Z,13.38
2017-06-02T01:57:44.492Z,12.32
2017-06-02T02:00:11.135Z,13.04
2017-06-02T02:02:37.694Z,14.30
2017-06-02T02:05:04.215Z,12.88
2017-06-02T02:07:30.717Z,13.26
2017-06-02T02:09:57.225Z,11.88
2017-06-02T02:12:23.805Z,11.78
2017-06-02T02:14:51.386Z,13.38
2017-06-02T02:17:17.978Z,12.98
2017-06-02T02:19:44.144Z,12.10
2017-06-02T02:22:10.683Z,13.06
2017-06-02T02:24:37.252Z,12.26
2017-06-02T02:27:03.888Z,12.40
2017-06-02T02:29:31.987Z,14.32
2017-06-02T02:31:58.733Z,12.68
2017-06-02T02:34:24.904Z,12.60
2017-06-02T02:36:51.096Z,12.90
2017-06-02T02:39:17.652Z,11.72
2017-06-02T02:41:44.198Z,12.92
2017-06-02T02:44:10.353Z,12.22
2017-06-02T02:46:36.842Z,12.82
2017-06-02T02:49:03.420Z,13.54
2017-06-02T02:51:30.045Z,13.70
2017-06-02T02:53:56.572Z,14.28
2017-06-02T02:56:23.117Z,13.52
2017-06-02T02:58:49.685Z,15.54
2017-06-02T03:01:15.892Z,13.50
2017-06-02T03:03:42.515Z,14.10
2017-06-02T03:06:09.096Z,13.92
2017-06-02T03:08:35.622Z,13.72
2017-06-02T03:11:01.782Z,13.48
2017-06-02T03:13:28.281Z,12.78
2017-06-02T03:15:54.839Z,13.88
2017-06-02T03:18:21.804Z,13.80
2017-06-02T03:20:48.628Z,14.94
2017-06-02T03:23:15.146Z,12.78
2017-06-02T03:25:41.680Z,13.48
2017-06-02T03:28:07.940Z,13.36
2017-06-02T03:30:34.168Z,14.10
2017-06-02T03:33:00.403Z,12.56
2017-06-02T03:35:26.568Z,11.74
2017-06-02T03:37:53.932Z,12.88
2017-06-02T03:40:20.462Z,13.44
2017-06-02T03:42:47.006Z,12.78
2017-06-02T03:45:13.537Z,13.00
2017-06-02T03:47:40.121Z,13.36
2017-06-02T03:50:06.838Z,12.62
2017-06-02T03:52:33.035Z,13.56
2017-06-02T03:54:59.553Z,12.92
2017-06-02T03:57:26.104Z,11.94
2017-06-02T03:59:52.689Z,13.08
2017-06-02T04:02:19.234Z,12.96
2017-06-02T04:04:45.783Z,11.76
2017-06-02T04:07:12.010Z,13.76
2017-06-02T04:09:38.213Z,12.14
2017-06-02T04:12:04.468Z,12.40
2017-06-02T04:14:31.052Z,13.44
2017-06-02T04:16:57.624Z,12.18
2017-06-02T04:19:23.793Z,12.54
2017-06-02T04:21:50.008Z,12.80
2017-06-02T04:24:16.079Z,13.44
2017-06-02T04:26:42.658Z,14.08
2017-06-02T04:29:08.796Z,12.32
2017-06-02T04:31:34.995Z,12.10
2017-06-02T04:34:01.581Z,15.04
2017-06-02T04:36:28.127Z,13.36
2017-06-02T04:38:54.301Z,12.92
2017-06-02T04:41:20.835Z,13.14
2017-06-02T04:43:47.393Z,12.96
2017-06-02T04:46:13.969Z,13.16
2017-06-02T04:48:40.496Z,13.34
2017-06-02T04:51:07.115Z,13.28
2017-06-02T04:53:33.613Z,13.08
2017-06-02T04:56:00.189Z,14.02
2017-06-02T04:58:26.701Z,13.80
2017-06-02T05:00:52.873Z,15.32
2017-06-02T05:03:19.494Z,13.96
2017-06-02T05:05:46.103Z,14.54
2017-06-02T05:08:12.645Z,14.44
2017-06-02T05:10:39.146Z,14.54
2017-06-02T05:13:05.675Z,14.32
2017-06-02T05:15:31.818Z,16.02
2017-06-02T05:17:59.840Z,15.26
2017-06-02T05:20:26.023Z,15.48
2017-06-02T05:22:52.078Z,15.16
2017-06-02T05:25:18.604Z,16.34
2017-06-02T05:27:44.808Z,15.62
2017-06-02T05:30:11.328Z,19.72
2017-06-02T05:32:37.524Z,17.90
2017-06-02T05:35:03.649Z,15.24
2017-06-02T05:37:30.217Z,17.12
2017-06-02T05:39:56.377Z,15.60
2017-06-02T05:42:22.953Z,19.26
2017-06-02T05:44:49.117Z,17.62
2017-06-02T05:47:15.259Z,17.98
2017-06-02T05:49:41.817Z,16.86
2017-06-02T05:52:08.337Z,16.56
2017-06-02T05:54:34.936Z,16.90
2017-06-02T05:57:01.127Z,16.38
2017-06-02T05:59:27.697Z,15.78
2017-06-02T06:01:53.846Z,20.68
2017-06-02T06:04:20.375Z,19.96
2017-06-02T06:06:46.928Z,17.50
2017-06-02T06:09:13.454Z,16.02
2017-06-02T06:11:39.843Z,18.20
2017-06-02T06:14:06.433Z,15.32
2017-06-02T06:16:32.962Z,16.16
2017-06-02T06:18:59.500Z,14.82
2017-06-02T06:21:26.291Z,14.52
2017-06-02T06:23:52.887Z,13.96
2017-06-02T06:26:19.437Z,14.00
2017-06-02T06:28:46.266Z,12.08
2017-06-02T06:31:13.914Z,11.36
2017-06-02T06:33:40.434Z,10.88
2017-06-02T06:36:06.966Z,9.22
2017-06-02T06:38:33.321Z,10.50
2017-06-02T06:40:59.899Z,11.84
2017-06-02T06:43:26.075Z,10.68
2017-06-02T06:45:52.685Z,9.42
2017-06-02T06:48:19.254Z,9.40
2017-06-02T06:50:46.541Z,12.00
2017-06-02T06:53:13.085Z,9.10
2017-06-02T06:55:39.633Z,9.26
2017-06-02T06:58:06.365Z,11.98
2017-06-02T07:00:32.575Z,10.02
2017-06-02T07:02:59.106Z,10.16
2017-06-02T07:05:25.281Z,9.42
2017-06-02T07:07:51.831Z,9.74
2017-06-02T07:10:18.393Z,12.64
2017-06-02T07:12:44.934Z,9.52
2017-06-02T07:15:11.500Z,10.08
2017-06-02T07:17:38.102Z,9.30
2017-06-02T07:20:04.637Z,10.52
2017-06-02T07:22:31.155Z,11.22
2017-06-02T07:24:57.909Z,9.80
2017-06-02T07:27:24.426Z,11.92
2017-06-02T07:29:51.007Z,10.36
2017-06-02T07:32:17.574Z,8.34
2017-06-02T07:34:44.166Z,15.26
2017-06-02T07:37:10.677Z,9.58
2017-06-02T07:39:37.270Z,9.02
2017-06-02T07:42:03.860Z,10.86
2017-06-02T07:44:30.030Z,11.16
2017-06-02T07:46:56.190Z,9.34
2017-06-02T07:49:22.724Z,9.08
2017-06-02T07:51:49.326Z,11.26
2017-06-02T07:54:15.849Z,8.92
2017-06-02T07:56:42.411Z,9.08
2017-06-02T07:59:09.149Z,8.60
2017-06-02T08:01:35.724Z,8.94
2017-06-02T08:04:02.259Z,9.68
2017-06-02T08:06:28.792Z,8.82
2017-06-02T08:08:55.550Z,9.62
2017-06-02T08:11:21.995Z,9.86
2017-06-02T08:13:48.508Z,10.90
2017-06-02T08:16:15.036Z,8.98
2017-06-02T08:18:41.718Z,8.10
2017-06-02T08:21:08.305Z,8.88
2017-06-02T08:23:34.957Z,8.58
2017-06-02T08:26:01.133Z,8.78
2017-06-02T08:28:27.355Z,7.66
2017-06-02T08:30:53.895Z,11.46
2017-06-02T08:33:20.450Z,9.10
2017-06-02T08:35:47.065Z,9.52
2017-06-02T08:38:13.621Z,7.62
2017-06-02T08:40:40.177Z,12.80
2017-06-02T08:43:06.345Z,8.18
2017-06-02T08:45:32.933Z,7.82
2017-06-02T08:47:59.459Z,9.80
2017-06-02T08:50:26.023Z,7.68
2017-06-02T08:52:53.180Z,6.52
2017-06-02T08:55:19.734Z,8.94
2017-06-02T08:57:46.272Z,7.70
2017-06-02T09:00:12.452Z,9.66
2017-06-02T09:02:39.018Z,8.24
2017-06-02T09:05:05.550Z,7.10
2017-06-02T09:07:32.106Z,8.98
2017-06-02T09:09:58.663Z,8.24
2017-06-02T09:12:24.852Z,8.86
2017-06-02T09:14:51.443Z,8.66
2017-06-02T09:17:18.025Z,9.56
2017-06-02T09:19:44.116Z,7.90
2017-06-02T09:22:10.266Z,8.10
2017-06-02T09:24:36.410Z,10.86
2017-06-02T09:27:02.598Z,8.24
2017-06-02T09:29:29.109Z,8.08
2017-06-02T09:31:55.680Z,43.70
2017-06-02T09:34:22.160Z,10.94
2017-06-02T09:36:48.734Z,7.34
2017-06-02T09:39:14.979Z,8.62
2017-06-02T09:41:41.607Z,8.36
2017-06-02T09:44:08.140Z,7.90
2017-06-02T09:46:34.198Z,8.32
2017-06-02T09:49:00.710Z,8.98
2017-06-02T09:51:27.616Z,8.28
2017-06-02T09:53:54.190Z,17.24
2017-06-02T09:56:20.780Z,7.98
2017-06-02T09:58:46.994Z,7.50
2017-06-02T10:01:13.595Z,8.74
2017-06-02T10:03:40.198Z,8.32
2017-06-02T10:06:06.391Z,7.84
2017-06-02T10:08:32.911Z,7.90
2017-06-02T10:10:59.463Z,9.80
2017-06-02T10:13:26.050Z,8.78
2017-06-02T10:15:52.662Z,8.06
2017-06-02T10:18:19.240Z,6.98
2017-06-02T10:20:47.095Z,7.76
2017-06-02T10:23:13.677Z,7.94
2017-06-02T10:25:39.915Z,7.80
2017-06-02T10:28:06.459Z,7.80
2017-06-02T10:30:32.655Z,8.14
2017-06-02T10:32:59.238Z,7.58
2017-06-02T10:35:25.869Z,10.58
2017-06-02T10:37:52.531Z,11.50
2017-06-02T10:40:19.207Z,10.28
2017-06-02T10:42:45.796Z,8.92
2017-06-02T10:45:11.994Z,7.32
2017-06-02T10:47:38.312Z,7.46
2017-06-02T10:50:04.488Z,6.98
2017-06-02T10:52:31.150Z,8.60
2017-06-02T10:54:57.786Z,6.74
2017-06-02T10:57:24.366Z,7.14
2017-06-02T10:59:51.267Z,7.46
2017-06-02T11:02:17.919Z,8.36
2017-06-02T11:04:44.506Z,7.42
2017-06-02T11:07:11.016Z,6.06
2017-06-02T11:09:37.651Z,6.06
2017-06-02T11:12:04.252Z,6.02
2017-06-02T11:14:30.848Z,6.36
2017-06-02T11:16:57.500Z,6.68
2017-06-02T11:19:24.064Z,7.06
2017-06-02T11:21:50.206Z,5.92
2017-06-02T11:24:16.831Z,7.16
2017-06-02T11:26:43.320Z,6.48
2017-06-02T11:29:09.867Z,6.10
2017-06-02T11:31:36.463Z,6.82
2017-06-02T11:34:03.072Z,7.48
2017-06-02T11:36:30.553Z,7.48
2017-06-02T11:38:57.172Z,6.22
2017-06-02T11:41:23.810Z,6.82
2017-06-02T11:43:50.331Z,5.92
2017-06-02T11:46:16.886Z,8.40
2017-06-02T11:48:43.419Z,7.08
2017-06-02T11:51:09.989Z,5.82
2017-06-02T11:53:36.595Z,7.74
2017-06-02T11:56:03.342Z,7.42
2017-06-02T11:58:29.921Z,6.52
2017-06-02T12:00:56.171Z,6.54
2017-06-02T12:03:22.783Z,5.92
2017-06-02T12:05:49.341Z,5.18
2017-06-02T12:08:16.402Z,5.30
2017-06-02T12:10:42.977Z,5.28
2017-06-02T12:13:09.575Z,5.82
2017-06-02T12:15:36.157Z,9.80
2017-06-02T12:18:02.720Z,4.88
2017-06-02T12:20:29.291Z,6.66
2017-06-02T12:22:55.858Z,5.46
2017-06-02T12:25:22.089Z,4.68
2017-06-02T12:27:48.612Z,5.28
2017-06-02T12:30:15.159Z,8.54
2017-06-02T12:32:41.775Z,5.24
2017-06-02T12:35:08.324Z,4.76
2017-06-02T12:37:34.869Z,4.56
2017-06-02T12:40:01.804Z,6.74
2017-06-02T12:42:28.302Z,4.80
2017-06-02T12:44:55.223Z,4.92
2017-06-02T12:47:21.786Z,5.66
2017-06-02T12:49:48.396Z,10.76
2017-06-02T12:52:15.002Z,4.68
2017-06-02T12:54:41.489Z,9.76
2017-06-02T12:57:08.043Z,4.40
2017-06-02T12:59:35.007Z,4.72
2017-06-02T13:02:01.619Z,4.84
2017-06-02T13:04:28.234Z,5.94
2017-06-02T13:06:54.409Z,5.46
2017-06-02T13:09:21.246Z,5.00
2017-06-02T13:11:48.877Z,5.84
2017-06-02T13:14:15.576Z,7.02
2017-06-02T13:16:42.191Z,5.38
2017-06-02T13:19:08.762Z,5.74
2017-06-02T13:21:36.045Z,6.30
2017-06-02T13:24:02.731Z,4.72
2017-06-02T13:26:28.974Z,5.00
2017-06-02T13:28:55.613Z,5.80
2017-06-02T13:31:21.786Z,5.44
2017-06-02T13:33:47.983Z,7.86
2017-06-02T13:36:14.238Z,6.10
2017-06-02T13:38:40.552Z,6.10
2017-06-02T13:41:06.778Z,5.40
2017-06-02T13:43:33.000Z,6.20
2017-06-02T13:45:59.577Z,5.18
2017-06-02T13:48:26.074Z,5.36
2017-06-02T13:50:52.658Z,5.46
2017-06-02T13:53:19.202Z,5.76
2017-06-02T13:55:45.809Z,5.42
2017-06-02T13:58:12.068Z,4.94
2017-06-02T14:00:38.605Z,5.94
2017-06-02T14:03:05.083Z,5.06
2017-06-02T14:05:31.319Z,6.00
2017-06-02T14:07:57.824Z,5.70
2017-06-02T14:10:24.091Z,6.02
2017-06-02T14:12:50.631Z,6.54
2017-06-02T14:15:17.209Z,5.42
2017-06-02T14:17:43.723Z,6.14
2017-06-02T14:20:10.025Z,8.76
2017-06-02T14:22:36.557Z,5.38
2017-06-02T14:25:03.186Z,5.26
2017-06-02T14:27:29.759Z,7.56
2017-06-02T14:29:56.172Z,4.78
2017-06-02T14:32:22.742Z,5.02
2017-06-02T14:34:49.302Z,5.24
2017-06-02T14:37:15.820Z,7.62
2017-06-02T14:39:42.002Z,8.90
2017-06-02T14:42:08.539Z,6.80
2017-06-02T14:44:35.043Z,5.24
2017-06-02T14:47:01.604Z,7.56
2017-06-02T14:49:28.206Z,5.76
2017-06-02T14:51:54.403Z,4.58
2017-06-02T14:54:21.061Z,7.30
2017-06-02T14:56:47.629Z,5.04
2017-06-02T14:59:14.280Z,5.50
2017-06-02T15:01:40.458Z,5.06
2017-06-02T15:04:07.004Z,5.44
2017-06-02T15:06:33.278Z,4.88
2017-06-02T15:08:59.855Z,6.08
2017-06-02T15:11:26.453Z,7.20
2017-06-02T15:13:53.053Z,5.94
2017-06-02T15:16:19.245Z,4.88
2017-06-02T15:18:45.845Z,4.34
2017-06-02T15:21:12.526Z,5.32
2017-06-02T15:23:39.580Z,4.62
2017-06-02T15:26:06.141Z,4.56
2017-06-02T15:28:32.419Z,4.90
2017-06-02T15:30:59.809Z,5.86
2017-06-02T15:33:26.402Z,4.68
2017-06-02T15:35:54.406Z,5.78
2017-06-02T15:38:22.065Z,5.18
2017-06-02T15:43:20.356Z,4.64
2017-06-02T15:45:47.358Z,7.32
2017-06-02T15:48:14.706Z,5.30
2017-06-02T15:50:41.358Z,5.88
2017-06-02T15:53:07.773Z,5.22
2017-06-02T15:55:34.904Z,5.14
2017-06-02T15:58:01.473Z,5.84
2017-06-02T16:00:29.113Z,5.76
2017-06-02T16:02:56.040Z,5.42
2017-06-02T16:05:22.588Z,4.94
2017-06-02T16:07:49.235Z,5.44
2017-06-02T16:10:15.803Z,4.62
2017-06-02T16:12:42.405Z,5.48
2017-06-02T16:15:09.481Z,5.32
2017-06-02T16:17:36.122Z,5.66
2017-06-02T16:20:02.724Z,5.10
2017-06-02T16:22:28.913Z,5.82
2017-06-02T16:24:55.184Z,6.14
2017-06-02T16:27:21.777Z,5.42
2017-06-02T16:29:48.327Z,6.30
2017-06-02T16:32:14.853Z,5.06
2017-06-02T16:34:41.420Z,5.16
2017-06-02T16:37:08.219Z,6.10
2017-06-02T16:39:34.803Z,6.18
2017-06-02T16:42:01.025Z,5.96
2017-06-02T16:44:27.224Z,6.82
2017-06-02T16:46:53.793Z,5.42
2017-06-02T16:49:20.362Z,5.78
2017-06-02T16:51:47.078Z,6.02
2017-06-02T16:54:13.295Z,5.90
2017-06-02T16:56:39.886Z,6.00
2017-06-02T16:59:06.446Z,6.14
2017-06-02T17:01:32.631Z,6.04
2017-06-02T17:03:58.792Z,6.10
2017-06-02T17:06:24.997Z,7.28
2017-06-02T17:08:51.573Z,6.62
2017-06-02T17:11:18.116Z,6.92
2017-06-02T17:13:44.696Z,7.08
2017-06-02T17:16:10.849Z,6.20
2017-06-02T17:18:37.429Z,6.62
2017-06-02T17:21:03.623Z,7.24
2017-06-02T17:23:30.187Z,9.40
2017-06-02T17:25:57.743Z,6.92
2017-06-02T17:28:23.906Z,7.20
2017-06-02T17:30:50.445Z,6.24
2017-06-02T17:33:17.030Z,6.90
2017-06-02T17:35:43.566Z,7.70
2017-06-02T17:38:10.002Z,7.74
2017-06-02T17:40:36.650Z,7.60
2017-06-02T17:43:03.199Z,6.46
2017-06-02T17:45:29.763Z,6.38
2017-06-02T17:47:57.338Z,7.16
2017-06-02T17:50:23.878Z,6.30
2017-06-02T17:52:50.425Z,6.60
2017-06-02T17:55:16.999Z,13.30
2017-06-02T17:57:43.562Z,7.46
2017-06-02T18:00:10.184Z,6.54
2017-06-02T18:02:36.886Z,7.54
2017-06-02T18:05:03.116Z,6.52
2017-06-02T18:07:29.663Z,7.38
2017-06-02T18:09:56.166Z,6.76
2017-06-02T18:12:22.759Z,8.96
2017-06-02T18:14:50.195Z,7.56
2017-06-02T18:17:16.743Z,7.32
2017-06-02T18:19:43.323Z,6.78
2017-06-02T18:22:09.896Z,10.40
2017-06-02T18:24:36.471Z,7.24
2017-06-02T18:27:02.738Z,8.06
2017-06-02T18:29:29.307Z,7.68
2017-06-02T18:31:55.352Z,6.30
2017-06-02T18:34:21.478Z,7.92
2017-06-02T18:36:47.666Z,7.16
2017-06-02T18:39:14.545Z,7.56
2017-06-02T18:41:40.733Z,6.62
2017-06-02T18:44:07.248Z,6.92
2017-06-02T18:46:33.873Z,16.68
2017-06-02T18:49:00.427Z,7.48
2017-06-02T18:51:26.970Z,5.02
2017-06-02T18:53:53.218Z,5.78
2017-06-02T18:56:19.369Z,7.30
2017-06-02T18:58:45.552Z,6.90
2017-06-02T19:01:12.160Z,5.18
2017-06-02T19:03:38.314Z,5.26
2017-06-02T19:06:04.751Z,5.78
2017-06-02T19:08:31.735Z,6.38
2017-06-02T19:10:58.500Z,6.56
2017-06-02T19:13:25.446Z,6.62
2017-06-02T19:15:52.545Z,6.74
2017-06-02T19:18:19.368Z,6.18
2017-06-02T19:20:46.200Z,6.04
2017-06-02T19:23:12.732Z,6.20
2017-06-02T19:25:39.276Z,7.28
2017-06-02T19:28:06.640Z,5.98
2017-06-02T19:30:34.167Z,6.98
2017-06-02T19:33:01.730Z,6.40
2017-06-02T19:35:29.634Z,7.26
2017-06-02T19:37:56.894Z,7.60
2017-06-02T19:40:23.377Z,8.10
2017-06-02T19:42:49.988Z,7.24
2017-06-02T19:45:17.844Z,7.32
2017-06-02T19:47:45.616Z,9.14
2017-06-02T19:50:13.156Z,8.48
2017-06-02T19:52:41.352Z,7.50
2017-06-02T19:55:09.136Z,11.30
2017-06-02T19:57:38.232Z,7.68
2017-06-02T20:00:05.383Z,7.66
2017-06-02T20:02:32.102Z,7.08
2017-06-02T20:04:58.563Z,8.32
2017-06-02T20:07:25.424Z,9.20
2017-06-02T20:09:52.569Z,7.66
2017-06-02T20:12:19.902Z,7.66
2017-06-02T20:14:47.537Z,14.94
2017-06-02T20:17:14.001Z,8.64
2017-06-02T20:19:41.125Z,8.70
2017-06-02T20:22:07.946Z,8.30
2017-06-02T20:24:35.011Z,8.38
2017-06-02T20:27:01.616Z,8.06
2017-06-02T20:29:28.709Z,8.82
2017-06-02T20:31:55.307Z,7.96
2017-06-02T20:34:21.948Z,8.38
2017-06-02T20:36:49.352Z,8.04
2017-06-02T20:39:15.948Z,8.44
2017-06-02T20:41:42.823Z,10.20
2017-06-02T20:44:10.590Z,9.70
2017-06-02T20:46:37.435Z,9.62
2017-06-02T20:49:04.054Z,9.48
2017-06-02T20:51:30.720Z,8.92
2017-06-02T20:53:57.326Z,9.10
2017-06-02T20:56:23.575Z,9.56
2017-06-02T20:58:49.776Z,10.66
2017-06-02T21:01:16.035Z,10.20
2017-06-02T21:03:44.298Z,8.48
2017-06-02T21:06:11.796Z,11.56
2017-06-02T21:08:38.044Z,9.54
2017-06-02T21:11:04.711Z,10.14
2017-06-02T21:14:09.804Z,9.23
2017-06-02T21:16:37.372Z,10.07
2017-06-02T21:19:05.769Z,11.00
2017-06-02T21:21:33.834Z,10.30
2017-06-02T21:24:01.922Z,10.13
2017-06-02T21:26:29.785Z,10.63
2017-06-02T21:28:58.021Z,9.90
2017-06-02T21:31:26.082Z,11.00
2017-06-02T21:33:53.584Z,9.60
2017-06-02T21:36:21.241Z,10.10
2017-06-02T21:38:49.663Z,10.57
2017-06-02T21:41:17.742Z,10.63
2017-06-02T21:43:45.376Z,10.90
2017-06-02T21:46:13.240Z,10.20
2017-06-02T21:48:40.932Z,10.53
2017-06-02T21:51:08.715Z,12.73
2017-06-02T21:53:36.243Z,9.60
2017-06-02T21:56:04.134Z,10.73
2017-06-02T21:58:31.651Z,10.47
2017-06-02T22:00:59.143Z,9.80
2017-06-02T22:03:27.067Z,11.93
2017-06-02T22:05:54.610Z,11.33
2017-06-02T22:08:22.131Z,11.07
2017-06-02T22:10:50.048Z,12.57
2017-06-02T22:13:17.698Z,12.43
2017-06-02T22:15:45.209Z,13.60
2017-06-02T22:18:12.714Z,15.73
2017-06-02T22:20:40.280Z,14.33
2017-06-02T22:23:08.551Z,16.90
2017-06-02T22:25:36.086Z,16.90
2017-06-02T22:28:04.015Z,17.40
2017-06-02T22:30:31.538Z,15.80
2017-06-02T22:32:59.459Z,15.67
2017-06-02T22:35:27.042Z,16.27
2017-06-02T22:37:54.619Z,16.50
2017-06-02T22:40:22.175Z,19.93
2017-06-02T22:42:49.781Z,18.87
2017-06-02T22:45:17.757Z,18.90
2017-06-02T22:47:45.662Z,20.47
2017-06-02T22:50:13.197Z,20.80
2017-06-02T22:52:40.737Z,18.83
2017-06-02T22:55:08.278Z,22.07
2017-06-02T22:57:35.800Z,20.13
2017-06-02T23:00:03.342Z,19.80
2017-06-02T23:02:30.879Z,20.13
2017-06-02T23:04:58.835Z,20.47
2017-06-02T23:07:26.379Z,20.07
2017-06-02T23:09:53.914Z,18.27
2017-06-02T23:12:21.400Z,19.20
2017-06-02T23:14:48.963Z,21.00
2017-06-02T23:17:16.621Z,20.60
2017-06-02T23:19:45.670Z,20.10
2017-06-02T23:22:13.165Z,19.53
2017-06-02T23:24:41.092Z,19.80
2017-06-02T23:27:08.542Z,20.00
2017-06-02T23:29:36.194Z,23.23
2017-06-02T23:32:03.654Z,19.83
2017-06-02T23:34:31.199Z,22.50
2017-06-02T23:36:58.719Z,22.37
2017-06-02T23:39:26.350Z,25.80
2017-06-02T23:41:54.138Z,37.30
2017-06-02T23:44:21.702Z,36.07
2017-06-02T23:46:49.327Z,29.47
2017-06-02T23:49:16.859Z,23.43
2017-06-02T23:51:44.376Z,22.77
2017-06-02T23:54:11.871Z,22.30
2017-06-02T23:56:39.421Z,20.23
2017-06-02T23:59:06.931Z,19.10
